Terminal Aerodrome Forecast
Issued by NWS Melbourne, FL

Home | Current Version | Previous Version | Text Only | Print | Product List | Glossary On
Versions: 1 2 3 4 5 6 7 8 9 10 11 12 13
000
FTUS42 KMLB 231620 AAA
TAFVRB
TAF AMD
KVRB 231620Z 2316/2412 20011KT P6SM VCSH SCT015 SCT035 OVC080
      TEMPO 2316/2317 BKN015
     FM231800 23010KT P6SM VCSH SCT020 BKN040
     FM240100 28005KT P6SM BKN020=

USA.gov is the U.S. government's official web portal to all federal, state and local government web resources and services.